sensor_id;sensor_type;location;lat;lon;timestamp;pressure;altitude;pressure_sealevel;temperature;humidity
11345;BME280;5727;42.600;23.028;2022-12-07T00:01:51;93616.75;;;9.13;100.00
11345;BME280;5727;42.600;23.028;2022-12-07T00:04:18;93612.19;;;9.10;100.00
11345;BME280;5727;42.600;23.028;2022-12-07T00:06:47;93608.91;;;9.13;100.00
11345;BME280;5727;42.600;23.028;2022-12-07T00:09:17;93611.53;;;9.13;100.00
11345;BME280;5727;42.600;23.028;2022-12-07T00:11:49;93607.53;;;9.16;100.00
11345;BME280;5727;42.600;23.028;2022-12-07T00:14:17;93614.63;;;9.07;100.00
11345;BME280;5727;42.600;23.028;2022-12-07T00:16:44;93606.31;;;9.13;100.00
11345;BME280;5727;42.600;23.028;2022-12-07T00:19:12;93607.56;;;9.07;100.00
11345;BME280;5727;42.600;23.028;2022-12-07T00:21:39;93603.47;;;8.98;100.00
11345;BME280;5727;42.600;23.028;2022-12-07T00:24:06;93594.13;;;8.97;100.00
11345;BME280;5727;42.600;23.028;2022-12-07T00:26:34;93596.88;;;9.00;100.00
11345;BME280;5727;42.600;23.028;2022-12-07T00:29:05;93596.28;;;8.95;100.00
11345;BME280;5727;42.600;23.028;2022-12-07T00:31:33;93592.44;;;8.92;100.00
11345;BME280;5727;42.600;23.028;2022-12-07T00:34:04;93597.47;;;8.97;100.00
11345;BME280;5727;42.600;23.028;2022-12-07T00:36:31;93600.75;;;8.94;100.00
11345;BME280;5727;42.600;23.028;2022-12-07T00:38:58;93597.22;;;8.90;100.00
11345;BME280;5727;42.600;23.028;2022-12-07T00:41:27;93593.16;;;9.01;100.00
11345;BME280;5727;42.600;23.028;2022-12-07T00:43:54;93607.63;;;8.99;100.00
11345;BME280;5727;42.600;23.028;2022-12-07T00:46:23;93606.50;;;9.08;100.00
11345;BME280;5727;42.600;23.028;2022-12-07T00:48:51;93611.13;;;9.03;100.00
11345;BME280;5727;42.600;23.028;2022-12-07T00:51:20;93603.00;;;9.04;100.00
11345;BME280;5727;42.600;23.028;2022-12-07T00:53:48;93597.31;;;9.02;100.00
11345;BME280;5727;42.600;23.028;2022-12-07T00:56:17;93602.53;;;9.02;100.00
11345;BME280;5727;42.600;23.028;2022-12-07T00:58:44;93595.78;;;9.01;100.00
11345;BME280;5727;42.600;23.028;2022-12-07T01:01:15;93591.00;;;9.03;100.00
11345;BME280;5727;42.600;23.028;2022-12-07T01:03:43;93589.06;;;8.92;100.00
11345;BME280;5727;42.600;23.028;2022-12-07T01:06:14;93595.19;;;8.96;100.00
11345;BME280;5727;42.600;23.028;2022-12-07T01:08:41;93591.31;;;9.02;100.00
11345;BME280;5727;42.600;23.028;2022-12-07T01:11:11;93592.53;;;9.04;100.00
11345;BME280;5727;42.600;23.028;2022-12-07T01:13:38;93586.78;;;9.11;100.00
11345;BME280;5727;42.600;23.028;2022-12-07T01:16:06;93585.16;;;9.06;100.00
11345;BME280;5727;42.600;23.028;2022-12-07T01:18:35;93588.81;;;9.05;100.00
11345;BME280;5727;42.600;23.028;2022-12-07T01:21:05;93569.63;;;9.01;100.00
11345;BME280;5727;42.600;23.028;2022-12-07T01:23:33;93576.97;;;9.08;100.00
11345;BME280;5727;42.600;23.028;2022-12-07T01:26:02;93571.88;;;9.11;100.00
11345;BME280;5727;42.600;23.028;2022-12-07T01:28:29;93571.44;;;9.09;100.00
11345;BME280;5727;42.600;23.028;2022-12-07T01:31:00;93575.13;;;9.08;100.00
11345;BME280;5727;42.600;23.028;2022-12-07T01:33:29;93568.16;;;9.12;100.00
11345;BME280;5727;42.600;23.028;2022-12-07T01:36:02;93573.16;;;9.05;100.00
11345;BME280;5727;42.600;23.028;2022-12-07T01:38:29;93564.97;;;9.07;100.00
11345;BME280;5727;42.600;23.028;2022-12-07T01:40:57;93569.84;;;9.17;100.00
11345;BME280;5727;42.600;23.028;2022-12-07T01:43:26;93567.41;;;9.12;100.00
11345;BME280;5727;42.600;23.028;2022-12-07T01:45:54;93573.53;;;9.16;100.00
11345;BME280;5727;42.600;23.028;2022-12-07T01:48:23;93568.63;;;9.14;100.00
11345;BME280;5727;42.600;23.028;2022-12-07T01:50:53;93569.84;;;9.17;100.00
11345;BME280;5727;42.600;23.028;2022-12-07T01:53:25;93565.88;;;9.11;100.00
11345;BME280;5727;42.600;23.028;2022-12-07T01:55:53;93568.03;;;9.09;100.00
11345;BME280;5727;42.600;23.028;2022-12-07T01:58:21;93564.84;;;9.03;100.00
11345;BME280;5727;42.600;23.028;2022-12-07T02:00:48;93559.13;;;9.10;100.00
11345;BME280;5727;42.600;23.028;2022-12-07T02:03:18;93552.94;;;9.14;100.00
11345;BME280;5727;42.600;23.028;2022-12-07T02:05:46;93548.16;;;9.16;100.00
11345;BME280;5727;42.600;23.028;2022-12-07T02:08:14;93547.97;;;9.21;100.00
11345;BME280;5727;42.600;23.028;2022-12-07T02:10:42;93548.09;;;9.25;100.00
11345;BME280;5727;42.600;23.028;2022-12-07T02:13:12;93548.53;;;9.27;100.00
11345;BME280;5727;42.600;23.028;2022-12-07T02:15:51;93549.03;;;9.20;100.00
11345;BME280;5727;42.600;23.028;2022-12-07T02:18:30;93549.31;;;9.28;100.00
11345;BME280;5727;42.600;23.028;2022-12-07T02:21:05;93548.75;;;9.22;100.00
11345;BME280;5727;42.600;23.028;2022-12-07T02:23:51;93549.94;;;9.24;100.00
11345;BME280;5727;42.600;23.028;2022-12-07T02:27:00;93545.69;;;9.20;100.00
11345;BME280;5727;42.600;23.028;2022-12-07T02:29:38;93541.19;;;9.20;100.00
11345;BME280;5727;42.600;23.028;2022-12-07T02:32:10;93534.91;;;9.21;100.00
11345;BME280;5727;42.600;23.028;2022-12-07T02:34:44;93533.19;;;9.26;100.00
11345;BME280;5727;42.600;23.028;2022-12-07T02:37:19;93520.38;;;9.12;100.00
11345;BME280;5727;42.600;23.028;2022-12-07T02:39:52;93528.25;;;9.24;100.00
11345;BME280;5727;42.600;23.028;2022-12-07T02:42:24;93524.00;;;9.19;100.00
11345;BME280;5727;42.600;23.028;2022-12-07T02:44:55;93520.19;;;9.17;100.00
11345;BME280;5727;42.600;23.028;2022-12-07T02:47:23;93518.34;;;8.97;100.00
11345;BME280;5727;42.600;23.028;2022-12-07T02:49:51;93513.94;;;8.89;100.00
11345;BME280;5727;42.600;23.028;2022-12-07T02:52:18;93507.50;;;8.86;100.00
11345;BME280;5727;42.600;23.028;2022-12-07T02:54:45;93516.13;;;8.87;100.00
11345;BME280;5727;42.600;23.028;2022-12-07T02:57:26;93510.97;;;8.99;100.00
11345;BME280;5727;42.600;23.028;2022-12-07T03:00:03;93508.66;;;8.97;100.00
11345;BME280;5727;42.600;23.028;2022-12-07T03:02:38;93502.34;;;8.98;100.00
11345;BME280;5727;42.600;23.028;2022-12-07T03:05:14;93510.25;;;9.10;100.00
11345;BME280;5727;42.600;23.028;2022-12-07T03:07:51;93502.25;;;9.07;100.00
11345;BME280;5727;42.600;23.028;2022-12-07T03:10:26;93507.19;;;8.88;100.00
11345;BME280;5727;42.600;23.028;2022-12-07T03:13:01;93500.25;;;8.92;100.00
11345;BME280;5727;42.600;23.028;2022-12-07T03:15:34;93502.34;;;8.98;100.00
11345;BME280;5727;42.600;23.028;2022-12-07T03:18:04;93507.97;;;8.88;100.00
11345;BME280;5727;42.600;23.028;2022-12-07T03:20:32;93500.25;;;8.92;100.00
11345;BME280;5727;42.600;23.028;2022-12-07T03:23:04;93517.34;;;8.89;100.00
11345;BME280;5727;42.600;23.028;2022-12-07T03:25:34;93516.25;;;8.90;100.00
11345;BME280;5727;42.600;23.028;2022-12-07T03:28:05;93506.63;;;8.82;100.00
11345;BME280;5727;42.600;23.028;2022-12-07T03:30:41;93514.91;;;8.64;100.00
11345;BME280;5727;42.600;23.028;2022-12-07T03:33:11;93511.84;;;8.62;100.00
11345;BME280;5727;42.600;23.028;2022-12-07T03:35:40;93511.16;;;8.73;100.00
11345;BME280;5727;42.600;23.028;2022-12-07T03:38:15;93510.50;;;8.76;100.00
11345;BME280;5727;42.600;23.028;2022-12-07T03:40:47;93515.41;;;8.78;100.00
11345;BME280;5727;42.600;23.028;2022-12-07T03:43:16;93517.06;;;8.82;100.00
11345;BME280;5727;42.600;23.028;2022-12-07T03:45:55;93511.34;;;8.89;100.00
11345;BME280;5727;42.600;23.028;2022-12-07T03:48:28;93513.88;;;8.97;100.00
11345;BME280;5727;42.600;23.028;2022-12-07T03:51:04;93505.09;;;9.02;100.00
11345;BME280;5727;42.600;23.028;2022-12-07T03:53:37;93505.22;;;9.05;100.00
11345;BME280;5727;42.600;23.028;2022-12-07T03:56:06;93509.47;;;9.10;100.00
11345;BME280;5727;42.600;23.028;2022-12-07T03:58:35;93504.03;;;9.15;100.00
11345;BME280;5727;42.600;23.028;2022-12-07T04:01:04;93503.28;;;9.14;100.00
11345;BME280;5727;42.600;23.028;2022-12-07T04:03:30;93501.88;;;9.17;100.00
11345;BME280;5727;42.600;23.028;2022-12-07T04:05:57;93498.91;;;9.06;100.00
11345;BME280;5727;42.600;23.028;2022-12-07T04:08:25;93502.41;;;9.10;100.00
11345;BME280;5727;42.600;23.028;2022-12-07T04:10:51;93495.00;;;9.12;100.00
11345;BME280;5727;42.600;23.028;2022-12-07T04:13:18;93498.06;;;8.94;100.00
11345;BME280;5727;42.600;23.028;2022-12-07T04:15:45;93507.47;;;8.95;100.00
11345;BME280;5727;42.600;23.028;2022-12-07T04:18:13;93513.19;;;8.88;100.00
11345;BME280;5727;42.600;23.028;2022-12-07T04:20:40;93509.16;;;8.70;100.00
11345;BME280;5727;42.600;23.028;2022-12-07T04:23:06;93507.88;;;8.56;100.00
11345;BME280;5727;42.600;23.028;2022-12-07T04:25:33;93506.66;;;8.53;100.00
11345;BME280;5727;42.600;23.028;2022-12-07T04:28:00;93508.00;;;8.59;100.00
11345;BME280;5727;42.600;23.028;2022-12-07T04:30:27;93508.09;;;8.71;100.00
11345;BME280;5727;42.600;23.028;2022-12-07T04:32:53;93513.38;;;8.83;100.00
11345;BME280;5727;42.600;23.028;2022-12-07T04:35:21;93507.00;;;8.93;100.00
11345;BME280;5727;42.600;23.028;2022-12-07T04:37:48;93502.84;;;8.92;100.00
11345;BME280;5727;42.600;23.028;2022-12-07T04:40:15;93509.78;;;8.88;100.00
11345;BME280;5727;42.600;23.028;2022-12-07T04:42:42;93504.84;;;8.95;100.00
11345;BME280;5727;42.600;23.028;2022-12-07T04:45:09;93505.53;;;8.83;100.00
11345;BME280;5727;42.600;23.028;2022-12-07T04:47:36;93506.81;;;8.98;100.00
11345;BME280;5727;42.600;23.028;2022-12-07T04:50:03;93506.47;;;8.99;100.00
11345;BME280;5727;42.600;23.028;2022-12-07T04:52:32;93504.13;;;9.06;100.00
11345;BME280;5727;42.600;23.028;2022-12-07T04:54:58;93504.59;;;9.08;100.00
11345;BME280;5727;42.600;23.028;2022-12-07T04:57:25;93513.03;;;9.05;100.00
11345;BME280;5727;42.600;23.028;2022-12-07T04:59:52;93509.94;;;9.12;100.00
11345;BME280;5727;42.600;23.028;2022-12-07T05:02:18;93509.53;;;9.01;100.00
11345;BME280;5727;42.600;23.028;2022-12-07T05:04:45;93512.47;;;9.00;100.00
11345;BME280;5727;42.600;23.028;2022-12-07T05:07:12;93524.41;;;9.09;100.00
11345;BME280;5727;42.600;23.028;2022-12-07T05:09:40;93521.59;;;8.94;100.00
11345;BME280;5727;42.600;23.028;2022-12-07T05:12:07;93516.69;;;8.92;100.00
11345;BME280;5727;42.600;23.028;2022-12-07T05:14:33;93525.59;;;8.91;100.00
11345;BME280;5727;42.600;23.028;2022-12-07T05:17:00;93524.31;;;8.97;100.00
11345;BME280;5727;42.600;23.028;2022-12-07T05:19:27;93523.19;;;8.86;100.00
11345;BME280;5727;42.600;23.028;2022-12-07T05:21:53;93514.13;;;8.84;100.00
11345;BME280;5727;42.600;23.028;2022-12-07T05:24:20;93518.84;;;8.70;100.00
11345;BME280;5727;42.600;23.028;2022-12-07T05:26:48;93522.94;;;8.79;100.00
11345;BME280;5727;42.600;23.028;2022-12-07T05:29:16;93515.53;;;8.81;100.00
11345;BME280;5727;42.600;23.028;2022-12-07T05:31:44;93511.97;;;8.86;100.00
11345;BME280;5727;42.600;23.028;2022-12-07T05:34:11;93510.44;;;8.85;100.00
11345;BME280;5727;42.600;23.028;2022-12-07T05:36:38;93511.47;;;8.92;100.00
11345;BME280;5727;42.600;23.028;2022-12-07T05:39:05;93502.34;;;8.98;100.00
11345;BME280;5727;42.600;23.028;2022-12-07T05:41:32;93502.59;;;9.05;100.00
11345;BME280;5727;42.600;23.028;2022-12-07T05:44:18;93503.03;;;9.07;100.00
11345;BME280;5727;42.600;23.028;2022-12-07T05:46:45;93498.19;;;8.97;100.00
11345;BME280;5727;42.600;23.028;2022-12-07T05:49:11;93502.03;;;9.00;100.00
11345;BME280;5727;42.600;23.028;2022-12-07T05:51:38;93499.63;;;8.95;100.00
11345;BME280;5727;42.600;23.028;2022-12-07T05:54:05;93502.34;;;8.98;100.00
11345;BME280;5727;42.600;23.028;2022-12-07T05:56:32;93499.09;;;9.01;100.00
11345;BME280;5727;42.600;23.028;2022-12-07T05:58:58;93492.22;;;8.97;100.00
11345;BME280;5727;42.600;23.028;2022-12-07T06:01:44;93494.50;;;8.98;100.00
11345;BME280;5727;42.600;23.028;2022-12-07T06:04:11;93495.41;;;9.02;100.00
11345;BME280;5727;42.600;23.028;2022-12-07T06:06:37;93498.19;;;8.97;100.00
11345;BME280;5727;42.600;23.028;2022-12-07T06:09:04;93499.75;;;8.98;100.00
11345;BME280;5727;42.600;23.028;2022-12-07T06:11:31;93498.84;;;8.94;100.00
11345;BME280;5727;42.600;23.028;2022-12-07T06:14:15;93509.78;;;8.88;100.00
11345;BME280;5727;42.600;23.028;2022-12-07T06:16:43;93505.13;;;8.93;100.00
11345;BME280;5727;42.600;23.028;2022-12-07T06:19:10;93504.97;;;8.98;100.00
11345;BME280;5727;42.600;23.028;2022-12-07T06:21:37;93507.69;;;9.02;100.00
11345;BME280;5727;42.600;23.028;2022-12-07T06:24:04;93508.59;;;9.06;100.00
11345;BME280;5727;42.600;23.028;2022-12-07T06:26:31;93510.19;;;8.98;100.00
11345;BME280;5727;42.600;23.028;2022-12-07T06:28:58;93520.66;;;8.98;100.00
11345;BME280;5727;42.600;23.028;2022-12-07T06:31:25;93512.53;;;8.91;100.00
11345;BME280;5727;42.600;23.028;2022-12-07T06:33:57;93510.81;;;8.95;100.00
11345;BME280;5727;42.600;23.028;2022-12-07T06:36:24;93509.75;;;8.96;100.00
11345;BME280;5727;42.600;23.028;2022-12-07T06:38:50;93523.44;;;8.93;100.00
11345;BME280;5727;42.600;23.028;2022-12-07T06:41:17;93518.97;;;8.73;100.00
11345;BME280;5727;42.600;23.028;2022-12-07T06:43:44;93514.44;;;8.82;100.00
11345;BME280;5727;42.600;23.028;2022-12-07T06:46:10;93518.19;;;8.73;100.00
11345;BME280;5727;42.600;23.028;2022-12-07T06:48:37;93521.91;;;8.72;100.00
11345;BME280;5727;42.600;23.028;2022-12-07T06:51:05;93524.31;;;8.56;100.00
11345;BME280;5727;42.600;23.028;2022-12-07T06:53:32;93527.69;;;8.57;100.00
11345;BME280;5727;42.600;23.028;2022-12-07T06:55:59;93523.50;;;8.64;100.00
11345;BME280;5727;42.600;23.028;2022-12-07T06:58:25;93527.25;;;8.75;100.00
11345;BME280;5727;42.600;23.028;2022-12-07T07:00:52;93520.38;;;8.71;100.00
11345;BME280;5727;42.600;23.028;2022-12-07T07:03:19;93523.69;;;8.80;100.00
11345;BME280;5727;42.600;23.028;2022-12-07T07:05:46;93521.22;;;8.83;100.00
11345;BME280;5727;42.600;23.028;2022-12-07T07:08:14;93530.81;;;8.91;100.00
11345;BME280;5727;42.600;23.028;2022-12-07T07:10:41;93525.09;;;8.98;100.00
11345;BME280;5727;42.600;23.028;2022-12-07T07:13:08;93532.38;;;8.92;100.00
11345;BME280;5727;42.600;23.028;2022-12-07T07:15:37;93518.19;;;8.93;100.00
11345;BME280;5727;42.600;23.028;2022-12-07T07:18:04;93524.47;;;9.01;100.00
11345;BME280;5727;42.600;23.028;2022-12-07T07:20:31;93527.25;;;9.16;100.00
11345;BME280;5727;42.600;23.028;2022-12-07T07:22:57;93523.19;;;9.28;100.00
11345;BME280;5727;42.600;23.028;2022-12-07T07:25:26;93516.06;;;9.28;100.00
11345;BME280;5727;42.600;23.028;2022-12-07T07:27:52;93532.75;;;9.23;100.00
11345;BME280;5727;42.600;23.028;2022-12-07T07:30:19;93521.88;;;9.34;100.00
11345;BME280;5727;42.600;23.028;2022-12-07T07:32:46;93530.84;;;9.45;100.00
11345;BME280;5727;42.600;23.028;2022-12-07T07:35:13;93541.34;;;9.57;100.00
11345;BME280;5727;42.600;23.028;2022-12-07T07:37:40;93540.31;;;9.70;100.00
11345;BME280;5727;42.600;23.028;2022-12-07T07:40:07;93545.66;;;9.73;100.00
11345;BME280;5727;42.600;23.028;2022-12-07T07:42:38;93543.56;;;9.67;100.00
11345;BME280;5727;42.600;23.028;2022-12-07T07:45:06;93538.44;;;9.70;100.00
11345;BME280;5727;42.600;23.028;2022-12-07T07:47:33;93541.59;;;9.64;100.00
11345;BME280;5727;42.600;23.028;2022-12-07T07:50:00;93535.72;;;9.67;100.00
11345;BME280;5727;42.600;23.028;2022-12-07T07:52:27;93543.47;;;9.75;100.00
11345;BME280;5727;42.600;23.028;2022-12-07T07:54:53;93540.53;;;9.77;100.00
11345;BME280;5727;42.600;23.028;2022-12-07T07:57:20;93536.81;;;9.78;100.00
11345;BME280;5727;42.600;23.028;2022-12-07T07:59:48;93539.59;;;9.93;100.00
11345;BME280;5727;42.600;23.028;2022-12-07T08:02:17;93538.19;;;9.96;100.00
11345;BME280;5727;42.600;23.028;2022-12-07T08:04:44;93529.75;;;9.78;100.00
11345;BME280;5727;42.600;23.028;2022-12-07T08:07:12;93537.63;;;9.90;100.00
11345;BME280;5727;42.600;23.028;2022-12-07T08:09:39;93535.84;;;10.15;100.00
11345;BME280;5727;42.600;23.028;2022-12-07T08:12:06;93537.25;;;10.37;100.00
11345;BME280;5727;42.600;23.028;2022-12-07T08:14:34;93540.00;;;10.52;100.00
11345;BME280;5727;42.600;23.028;2022-12-07T08:17:02;93533.84;;;10.72;100.00
11345;BME280;5727;42.600;23.028;2022-12-07T08:19:29;93533.94;;;10.76;100.00
11345;BME280;5727;42.600;23.028;2022-12-07T08:21:56;93531.31;;;10.88;100.00
11345;BME280;5727;42.600;23.028;2022-12-07T08:24:23;93527.25;;;11.02;100.00
11345;BME280;5727;42.600;23.028;2022-12-07T08:26:50;93533.75;;;11.21;100.00
11345;BME280;5727;42.600;23.028;2022-12-07T08:29:17;93540.09;;;11.20;100.00
11345;BME280;5727;42.600;23.028;2022-12-07T08:31:44;93554.59;;;11.29;100.00
11345;BME280;5727;42.600;23.028;2022-12-07T08:34:13;93542.38;;;11.49;100.00
11345;BME280;5727;42.600;23.028;2022-12-07T08:36:40;93542.63;;;11.44;100.00
11345;BME280;5727;42.600;23.028;2022-12-07T08:39:07;93538.34;;;11.51;100.00
11345;BME280;5727;42.600;23.028;2022-12-07T08:41:33;93539.50;;;11.66;100.00
11345;BME280;5727;42.600;23.028;2022-12-07T08:44:00;93536.00;;;11.62;100.00
11345;BME280;5727;42.600;23.028;2022-12-07T08:46:30;93537.50;;;11.75;100.00
11345;BME280;5727;42.600;23.028;2022-12-07T08:49:04;93532.25;;;11.63;100.00
11345;BME280;5727;42.600;23.028;2022-12-07T08:51:35;93525.31;;;11.27;100.00
11345;BME280;5727;42.600;23.028;2022-12-07T08:54:03;93528.22;;;11.10;100.00
11345;BME280;5727;42.600;23.028;2022-12-07T08:56:31;93527.31;;;10.66;100.00
11345;BME280;5727;42.600;23.028;2022-12-07T08:58:58;93516.38;;;10.64;100.00
11345;BME280;5727;42.600;23.028;2022-12-07T09:01:25;93514.69;;;10.96;100.00
11345;BME280;5727;42.600;23.028;2022-12-07T09:03:52;93517.00;;;10.85;100.00
11345;BME280;5727;42.600;23.028;2022-12-07T09:06:19;93514.81;;;10.87;100.00
11345;BME280;5727;42.600;23.028;2022-12-07T09:08:50;93505.19;;;11.03;100.00
11345;BME280;5727;42.600;23.028;2022-12-07T09:11:18;93506.66;;;11.17;100.00
11345;BME280;5727;42.600;23.028;2022-12-07T09:13:45;93507.66;;;11.40;100.00
11345;BME280;5727;42.600;23.028;2022-12-07T09:16:12;93502.94;;;11.73;100.00
11345;BME280;5727;42.600;23.028;2022-12-07T09:18:39;93500.91;;;11.82;100.00
11345;BME280;5727;42.600;23.028;2022-12-07T09:21:05;93499.97;;;11.74;100.00
11345;BME280;5727;42.600;23.028;2022-12-07T09:23:32;93496.31;;;11.63;100.00
11345;BME280;5727;42.600;23.028;2022-12-07T09:26:00;93501.84;;;11.89;100.00
11345;BME280;5727;42.600;23.028;2022-12-07T09:28:28;93501.13;;;11.89;100.00
11345;BME280;5727;42.600;23.028;2022-12-07T09:30:54;93495.69;;;12.13;100.00
11345;BME280;5727;42.600;23.028;2022-12-07T09:33:21;93491.84;;;12.42;100.00
11345;BME280;5727;42.600;23.028;2022-12-07T09:35:49;93490.88;;;12.65;100.00
11345;BME280;5727;42.600;23.028;2022-12-07T09:38:18;93495.03;;;12.66;100.00
11345;BME280;5727;42.600;23.028;2022-12-07T09:40:46;93475.59;;;12.71;100.00
11345;BME280;5727;42.600;23.028;2022-12-07T09:43:16;93477.66;;;12.97;100.00
11345;BME280;5727;42.600;23.028;2022-12-07T09:45:44;93470.47;;;13.13;99.31
11345;BME280;5727;42.600;23.028;2022-12-07T09:48:17;93469.50;;;13.21;95.32
11345;BME280;5727;42.600;23.028;2022-12-07T09:50:46;93473.09;;;13.13;94.57
11345;BME280;5727;42.600;23.028;2022-12-07T09:53:15;93461.53;;;12.98;96.34
11345;BME280;5727;42.600;23.028;2022-12-07T09:55:44;93465.06;;;12.86;97.91
11345;BME280;5727;42.600;23.028;2022-12-07T09:58:19;93464.06;;;12.41;100.00
11345;BME280;5727;42.600;23.028;2022-12-07T10:00:48;93463.00;;;12.61;100.00
11345;BME280;5727;42.600;23.028;2022-12-07T10:03:15;93462.53;;;13.09;98.45
11345;BME280;5727;42.600;23.028;2022-12-07T10:05:44;93458.69;;;13.45;95.99
11345;BME280;5727;42.600;23.028;2022-12-07T10:08:12;93457.69;;;13.53;93.69
11345;BME280;5727;42.600;23.028;2022-12-07T10:10:41;93457.25;;;13.70;92.61
11345;BME280;5727;42.600;23.028;2022-12-07T10:13:09;93448.56;;;13.47;93.16
11345;BME280;5727;42.600;23.028;2022-12-07T10:15:50;93446.03;;;13.31;91.07
11345;BME280;5727;42.600;23.028;2022-12-07T10:18:26;93442.50;;;13.24;93.72
11345;BME280;5727;42.600;23.028;2022-12-07T10:21:11;93443.41;;;13.12;94.54
11345;BME280;5727;42.600;23.028;2022-12-07T10:23:40;93437.41;;;13.31;92.56
11345;BME280;5727;42.600;23.028;2022-12-07T10:26:26;93445.69;;;13.33;90.87
11345;BME280;5727;42.600;23.028;2022-12-07T10:28:54;93439.22;;;13.08;93.06
11345;BME280;5727;42.600;23.028;2022-12-07T10:31:23;93427.69;;;12.97;93.69
11345;BME280;5727;42.600;23.028;2022-12-07T10:33:52;93432.84;;;12.74;96.34
11345;BME280;5727;42.600;23.028;2022-12-07T10:36:23;93422.75;;;12.95;96.10
11345;BME280;5727;42.600;23.028;2022-12-07T10:38:52;93416.50;;;13.19;94.54
11345;BME280;5727;42.600;23.028;2022-12-07T10:41:20;93414.19;;;13.36;92.14
11345;BME280;5727;42.600;23.028;2022-12-07T10:43:48;93410.09;;;13.20;93.11
11345;BME280;5727;42.600;23.028;2022-12-07T10:52:51;93395.81;;;13.62;90.16
11345;BME280;5727;42.600;23.028;2022-12-07T10:55:26;93395.97;;;13.69;90.12
11345;BME280;5727;42.600;23.028;2022-12-07T10:58:15;93384.56;;;13.62;89.59
11345;BME280;5727;42.600;23.028;2022-12-07T11:00:55;93391.63;;;13.58;89.13
11345;BME280;5727;42.600;23.028;2022-12-07T11:03:36;93387.31;;;13.69;88.97
11345;BME280;5727;42.600;23.028;2022-12-07T11:06:14;93376.69;;;13.43;89.10
11345;BME280;5727;42.600;23.028;2022-12-07T11:08:57;93367.59;;;13.37;89.46
11345;BME280;5727;42.600;23.028;2022-12-07T11:11:32;93366.41;;;13.34;89.68
11345;BME280;5727;42.600;23.028;2022-12-07T11:14:03;93360.00;;;13.13;91.21
11345;BME280;5727;42.600;23.028;2022-12-07T11:16:42;93358.97;;;13.40;89.97
11345;BME280;5727;42.600;23.028;2022-12-07T11:22:07;93364.03;;;13.07;90.84
11345;BME280;5727;42.600;23.028;2022-12-07T11:24:40;93357.81;;;13.37;89.94
11345;BME280;5727;42.600;23.028;2022-12-07T11:27:20;93361.31;;;13.45;87.64
11345;BME280;5727;42.600;23.028;2022-12-07T11:30:00;93354.97;;;13.46;87.44
11345;BME280;5727;42.600;23.028;2022-12-07T11:32:45;93352.38;;;13.49;87.56
11345;BME280;5727;42.600;23.028;2022-12-07T11:35:22;93356.16;;;13.74;88.34
11345;BME280;5727;42.600;23.028;2022-12-07T11:37:57;93352.81;;;14.00;85.62
11345;BME280;5727;42.600;23.028;2022-12-07T11:40:28;93357.81;;;14.09;83.86
11345;BME280;5727;42.600;23.028;2022-12-07T11:42:59;93345.34;;;14.06;82.68
11345;BME280;5727;42.600;23.028;2022-12-07T11:45:27;93351.34;;;14.06;83.05
11345;BME280;5727;42.600;23.028;2022-12-07T11:47:59;93352.09;;;14.03;82.90
11345;BME280;5727;42.600;23.028;2022-12-07T11:50:33;93353.31;;;13.15;87.08
11345;BME280;5727;42.600;23.028;2022-12-07T11:53:05;93353.09;;;12.85;88.48
11345;BME280;5727;42.600;23.028;2022-12-07T11:55:41;93336.28;;;12.90;89.28
11345;BME280;5727;42.600;23.028;2022-12-07T11:58:22;93353.59;;;12.72;90.06
11345;BME280;5727;42.600;23.028;2022-12-07T12:01:01;93339.34;;;12.73;90.39
11345;BME280;5727;42.600;23.028;2022-12-07T12:03:34;93344.78;;;12.45;92.01
11345;BME280;5727;42.600;23.028;2022-12-07T12:06:03;93342.16;;;12.45;92.69
11345;BME280;5727;42.600;23.028;2022-12-07T12:08:33;93338.44;;;12.65;92.66
11345;BME280;5727;42.600;23.028;2022-12-07T12:11:10;93336.16;;;12.83;91.64
11345;BME280;5727;42.600;23.028;2022-12-07T12:14:01;93325.53;;;12.99;90.25
11345;BME280;5727;42.600;23.028;2022-12-07T12:16:59;93310.69;;;13.06;88.65
11345;BME280;5727;42.600;23.028;2022-12-07T12:19:34;93316.50;;;12.96;89.98
11345;BME280;5727;42.600;23.028;2022-12-07T12:22:10;93314.44;;;13.28;88.61
11345;BME280;5727;42.600;23.028;2022-12-07T12:24:40;93309.00;;;13.40;87.56
11345;BME280;5727;42.600;23.028;2022-12-07T12:27:09;93303.84;;;13.47;86.43
11345;BME280;5727;42.600;23.028;2022-12-07T12:29:42;93308.69;;;13.45;86.52
11345;BME280;5727;42.600;23.028;2022-12-07T12:32:18;93301.22;;;13.24;87.05
11345;BME280;5727;42.600;23.028;2022-12-07T12:35:02;93305.91;;;13.34;87.15
11345;BME280;5727;42.600;23.028;2022-12-07T12:37:41;93297.88;;;13.50;86.32
11345;BME280;5727;42.600;23.028;2022-12-07T12:40:40;93301.97;;;13.47;86.34
11345;BME280;5727;42.600;23.028;2022-12-07T12:46:37;93306.78;;;13.42;84.82
11345;BME280;5727;42.600;23.028;2022-12-07T12:55:28;93314.72;;;12.81;88.43
11345;BME280;5727;42.600;23.028;2022-12-07T13:04:28;93306.50;;;12.63;89.30
11345;BME280;5727;42.600;23.028;2022-12-07T13:06:57;93298.53;;;12.79;89.66
11345;BME280;5727;42.600;23.028;2022-12-07T13:09:26;93303.84;;;12.82;88.72
11345;BME280;5727;42.600;23.028;2022-12-07T13:12:02;93312.31;;;12.95;88.23
11345;BME280;5727;42.600;23.028;2022-12-07T13:14:52;93313.59;;;13.24;85.88
11345;BME280;5727;42.600;23.028;2022-12-07T13:23:24;93321.16;;;14.26;80.44
11345;BME280;5727;42.600;23.028;2022-12-07T13:25:58;93310.06;;;15.46;75.74
11345;BME280;5727;42.600;23.028;2022-12-07T13:28:33;93317.38;;;16.21;69.69
11345;BME280;5727;42.600;23.028;2022-12-07T13:31:13;93306.38;;;16.09;67.59
11345;BME280;5727;42.600;23.028;2022-12-07T13:33:43;93299.09;;;16.57;67.12
11345;BME280;5727;42.600;23.028;2022-12-07T13:36:18;93301.03;;;16.74;65.16
11345;BME280;5727;42.600;23.028;2022-12-07T13:38:51;93292.59;;;16.43;65.74
11345;BME280;5727;42.600;23.028;2022-12-07T13:41:19;93301.66;;;15.81;68.52
11345;BME280;5727;42.600;23.028;2022-12-07T13:43:52;93298.78;;;15.49;70.58
11345;BME280;5727;42.600;23.028;2022-12-07T13:46:25;93294.19;;;15.87;69.48
11345;BME280;5727;42.600;23.028;2022-12-07T13:48:53;93298.13;;;16.17;68.18